• Join FlightAware (Why Join?)
  • Login
  • US Flag 
11:41PM EDT


 

Airport Tracker/Info


-or-


 

Live Flight TrackerFlight Track Log ✈ N244AH ✈ 25-Jul-2013 ✈ 8V2 - KMOX

Flight Track Log - Related Links

Times and Time Zones

All times are in EDT time to prevent confusion due to time zone crossing. See the N244AH flight status page for this flight to view local times or setup timezone preferences in your user account.

Time Position Orientation Groundspeed Altitude Reporting Facility
EDT Latitude Longitude Course Direction KTS MPH feet Rate Location/Type
06:24PM 42.7425 -98.8424 35° Northeast  Level FlightAware Approximate
06:25PM 42.7817 -98.8056 35° Northeast  Level FlightAware Approximate
06:26PM 42.8210 -98.7687 35° Northeast  Level FlightAware Approximate
06:27PM 42.8602 -98.7318 35° Northeast  Level FlightAware Approximate
06:28PM 42.8994 -98.6948 35° Northeast  Level FlightAware Approximate
06:29PM 42.9386 -98.6578 35° Northeast  Level FlightAware Approximate
06:30PM 42.9777 -98.6207 35° Northeast  Level FlightAware Approximate
06:31PM 43.0169 -98.5835 35° Northeast  Level FlightAware Approximate
06:32PM 43.0560 -98.5464 35° Northeast  Level FlightAware Approximate
06:33PM 43.0952 -98.5092 35° Northeast  Level FlightAware Approximate
06:34PM 43.1343 -98.4719 35° Northeast  Level FlightAware Approximate
06:34PM 43.1900 -98.4683 35° Northeast 158 182 7,000  Level Minneapolis Center
06:35PM 43.1734 -98.4346 35° Northeast  Level FlightAware Approximate
06:35PM 43.2267 -98.4325 35° Northeast 162 186 7,000  Level Minneapolis Center
06:36PM 43.2125 -98.3972 35° Northeast  Level FlightAware Approximate
06:36PM 43.2614 -98.3978 36° Northeast 160 184 7,000  Level Minneapolis Center
06:37PM 43.2516 -98.3598 35° Northeast  Level FlightAware Approximate
06:37PM 43.2903 -98.3689 36° Northeast 159 183 7,000  Level Minneapolis Center
06:38PM 43.2907 -98.3223 35° Northeast  Level FlightAware Approximate
06:38PM 43.3317 -98.3275 36° Northeast 157 181 7,000  Level Minneapolis Center
06:39PM 43.3298 -98.2848 35° Northeast  Level FlightAware Approximate
06:39PM 43.3719 -98.2850 37° Northeast 154 177 7,000  Level Minneapolis Center
06:40PM 43.4047 -98.2511 37° Northeast 152 175 7,000  Level Minneapolis Center
06:41PM 43.4408 -98.2167 35° Northeast 153 176 7,100  Climbing Minneapolis Center
06:42PM 43.4831 -98.1744 36° Northeast 155 178 7,000 -60 Descending Minneapolis Center
06:43PM 43.5181 -98.1375 37° Northeast 157 181 7,000  Level Minneapolis Center
06:44PM 43.5592 -98.0947 37° Northeast 156 180 7,000  Level Minneapolis Center
06:45PM 43.5950 -98.0611 34° Northeast 156 180 7,000  Level Minneapolis Center
06:46PM 43.6275 -98.0247 39° Northeast 154 177 7,000  Level Minneapolis Center
06:47PM 43.6619 -97.9892 37° Northeast 154 177 7,000  Level Minneapolis Center
06:48PM 43.6969 -97.9536 36° Northeast 154 177 7,000  Level Minneapolis Center
06:49PM 43.7333 -97.9175 36° Northeast 158 182 7,000  Level Minneapolis Center
06:50PM 43.7772 -97.8733 36° Northeast 160 184 7,000  Level Minneapolis Center
06:52PM 43.8131 -97.8356 37° Northeast 161 185 7,100  Climbing Minneapolis Center
06:53PM 43.8500 -97.7981 36° Northeast 163 188 7,000  Descending Minneapolis Center
06:55PM 43.9242 -97.7247 35° Northeast 164 189 7,100  Climbing Minneapolis Center
06:56PM 43.9606 -97.6856 38° Northeast 165 190 7,000 -60 Descending Minneapolis Center
06:57PM 43.9969 -97.6469 37° Northeast 165 190 7,000  Level Minneapolis Center
06:58PM 44.0408 -97.6017 37° Northeast 164 189 7,000  Level Minneapolis Center
06:59PM 44.0786 -97.5628 36° Northeast 166 191 7,100  Climbing Minneapolis Center
07:00PM 44.1161 -97.5250 36° Northeast 166 191 7,000 -60 Descending Minneapolis Center
07:01PM 44.1522 -97.4856 38° Northeast 166 191 7,000  Level Minneapolis Center
07:02PM 44.1894 -97.4464 37° Northeast 167 192 7,000 -60 Level Minneapolis Center
07:03PM 44.2408 -97.3933 36° Northeast 165 190 6,900  Descending Minneapolis Center
07:04PM 44.2778 -97.3550 37° Northeast 165 190 7,000  Climbing Minneapolis Center
07:05PM 44.3231 -97.3081 37° Northeast 167 192 7,000  Level Minneapolis Center
07:06PM 44.3606 -97.2689 37° Northeast 168 193 7,000  Level Minneapolis Center
07:07PM 44.3978 -97.2289 38° Northeast 168 193 7,100  Climbing Minneapolis Center
07:08PM 44.4425 -97.1808 37° Northeast 168 193 7,000 -60 Descending Minneapolis Center
07:10PM 44.4800 -97.1411 37° Northeast 169 194 7,000  Level Minneapolis Center
07:11PM 44.5111 -97.1092 36° Northeast 170 196 7,000  Level Minneapolis Center
07:12PM 44.5494 -97.0678 38° Northeast 172 198 7,000  Level Minneapolis Center
07:13PM 44.5961 -97.0183 37° Northeast 173 199 7,000  Level Minneapolis Center
07:14PM 44.6353 -96.9764 37° Northeast 175 201 7,100  Climbing Minneapolis Center
07:15PM 44.6881 -96.9206 37° Northeast 173 199 7,000 -60 Descending Minneapolis Center
07:16PM 44.7261 -96.8811 36° Northeast 171 197 7,000  Level Minneapolis Center
07:17PM 44.7650 -96.8381 38° Northeast 170 196 7,000  Level Minneapolis Center
07:18PM 44.8064 -96.7958 36° Northeast 171 197 7,100  Climbing Minneapolis Center
07:19PM 44.8367 -96.7611 39° Northeast 167 192 7,100 -60 Level Minneapolis Center
07:20PM 44.8714 -96.7250 36° Northeast 162 186 7,000 -60 Descending Minneapolis Center
07:21PM 44.9133 -96.6792 38° Northeast 160 184 7,000  Level Minneapolis Center
07:22PM 44.9483 -96.6406 38° Northeast 159 183 7,000  Level Minneapolis Center
07:23PM 44.9847 -96.6025 36° Northeast 161 185 7,000  Level Minneapolis Center
07:24PM 45.0289 -96.5542 38° Northeast 161 185 7,000  Level Minneapolis Center
07:25PM 45.0611 -96.5181 38° Northeast 160 184 7,100 -240 Climbing Minneapolis Center
07:26PM 45.0894 -96.4883 37° Northeast 159 183 6,600 -60 Descending Minneapolis Center
07:28PM 45.1394 -96.4339 38° Northeast 160 184 7,000 180 Climbing Minneapolis Center
07:29PM 45.1686 -96.4022 37° Northeast 162 186 7,000  Level Minneapolis Center
07:30PM 45.2128 -96.3542 37° Northeast 164 189 7,000  Level Minneapolis Center
07:31PM 45.2492 -96.3144 38° Northeast 166 191 7,000  Level Minneapolis Center
07:32PM 45.2847 -96.2750 38° Northeast 164 189 7,000  Level Minneapolis Center
07:33PM 45.3203 -96.2372 37° Northeast 163 188 7,000 -60 Level Minneapolis Center
07:34PM 45.3636 -96.1903 37° Northeast 162 186 6,900 -600 Descending Minneapolis Center
07:35PM 45.4022 -96.1486 37° Northeast 166 191 5,800 -1,080 Descending Minneapolis Center
07:37PM 45.4594 -96.0687 38° Northeast  Level FlightAware Approximate
07:44PM 45.5500 -95.9667 North  Level FlightAware Approximate
07:45PM 45.5660 -95.9672 North  Level Estimated